sensor_id;sensor_type;location;lat;lon;timestamp;P1;durP1;ratioP1;P2;durP2;ratioP2
71048;SDS011;58704;53.358;-6.238;2024-02-23T00:00:23;2.93;;;1.33;;
71048;SDS011;58704;53.358;-6.238;2024-02-23T00:02:49;4.33;;;1.47;;
71048;SDS011;58704;53.358;-6.238;2024-02-23T00:05:14;4.20;;;1.37;;
71048;SDS011;58704;53.358;-6.238;2024-02-23T00:07:39;2.50;;;1.23;;
71048;SDS011;58704;53.358;-6.238;2024-02-23T00:10:05;5.23;;;1.47;;
71048;SDS011;58704;53.358;-6.238;2024-02-23T00:12:30;2.63;;;1.25;;
71048;SDS011;58704;53.358;-6.238;2024-02-23T00:14:56;2.50;;;1.50;;
71048;SDS011;58704;53.358;-6.238;2024-02-23T00:17:21;3.80;;;1.40;;
71048;SDS011;58704;53.358;-6.238;2024-02-23T00:19:47;6.88;;;2.25;;
71048;SDS011;58704;53.358;-6.238;2024-02-23T00:22:12;5.37;;;1.50;;
71048;SDS011;58704;53.358;-6.238;2024-02-23T00:24:38;6.70;;;2.33;;
71048;SDS011;58704;53.358;-6.238;2024-02-23T00:27:03;6.70;;;2.37;;
71048;SDS011;58704;53.358;-6.238;2024-02-23T00:29:28;5.10;;;1.70;;
71048;SDS011;58704;53.358;-6.238;2024-02-23T00:31:54;4.33;;;1.50;;
71048;SDS011;58704;53.358;-6.238;2024-02-23T00:34:19;6.63;;;1.50;;
71048;SDS011;58704;53.358;-6.238;2024-02-23T00:36:44;2.73;;;1.47;;
71048;SDS011;58704;53.358;-6.238;2024-02-23T00:39:09;10.00;;;3.20;;
71048;SDS011;58704;53.358;-6.238;2024-02-23T00:41:35;5.97;;;1.40;;
71048;SDS011;58704;53.358;-6.238;2024-02-23T00:44:01;6.70;;;1.60;;
71048;SDS011;58704;53.358;-6.238;2024-02-23T00:46:26;14.98;;;2.70;;
71048;SDS011;58704;53.358;-6.238;2024-02-23T00:48:51;4.07;;;1.40;;
71048;SDS011;58704;53.358;-6.238;2024-02-23T00:51:16;3.97;;;1.53;;
71048;SDS011;58704;53.358;-6.238;2024-02-23T00:53:42;4.90;;;1.37;;
71048;SDS011;58704;53.358;-6.238;2024-02-23T00:56:07;8.97;;;2.67;;
71048;SDS011;58704;53.358;-6.238;2024-02-23T00:58:32;9.43;;;1.40;;
71048;SDS011;58704;53.358;-6.238;2024-02-23T01:00:58;7.60;;;2.50;;
71048;SDS011;58704;53.358;-6.238;2024-02-23T01:03:23;5.07;;;1.92;;
71048;SDS011;58704;53.358;-6.238;2024-02-23T01:05:49;5.13;;;1.20;;
71048;SDS011;58704;53.358;-6.238;2024-02-23T01:08:15;9.57;;;1.50;;
71048;SDS011;58704;53.358;-6.238;2024-02-23T01:10:41;5.80;;;1.40;;
71048;SDS011;58704;53.358;-6.238;2024-02-23T01:13:06;5.22;;;1.42;;
71048;SDS011;58704;53.358;-6.238;2024-02-23T01:15:31;2.93;;;1.43;;
71048;SDS011;58704;53.358;-6.238;2024-02-23T01:17:57;7.17;;;1.60;;
71048;SDS011;58704;53.358;-6.238;2024-02-23T01:20:22;6.97;;;1.80;;
71048;SDS011;58704;53.358;-6.238;2024-02-23T01:22:47;6.50;;;1.70;;
71048;SDS011;58704;53.358;-6.238;2024-02-23T01:25:13;8.50;;;2.10;;
71048;SDS011;58704;53.358;-6.238;2024-02-23T01:27:40;8.52;;;2.22;;
71048;SDS011;58704;53.358;-6.238;2024-02-23T01:30:06;4.53;;;1.47;;
71048;SDS011;58704;53.358;-6.238;2024-02-23T01:32:31;5.45;;;1.33;;
71048;SDS011;58704;53.358;-6.238;2024-02-23T01:34:56;7.10;;;1.80;;
71048;SDS011;58704;53.358;-6.238;2024-02-23T01:37:22;7.07;;;1.30;;
71048;SDS011;58704;53.358;-6.238;2024-02-23T01:39:47;7.23;;;1.50;;
71048;SDS011;58704;53.358;-6.238;2024-02-23T01:42:12;7.70;;;1.77;;
71048;SDS011;58704;53.358;-6.238;2024-02-23T01:44:37;4.60;;;1.70;;
71048;SDS011;58704;53.358;-6.238;2024-02-23T01:47:03;7.87;;;1.93;;
71048;SDS011;58704;53.358;-6.238;2024-02-23T01:49:28;9.87;;;1.60;;
71048;SDS011;58704;53.358;-6.238;2024-02-23T01:51:58;5.40;;;1.17;;
71048;SDS011;58704;53.358;-6.238;2024-02-23T01:54:24;5.57;;;1.20;;
71048;SDS011;58704;53.358;-6.238;2024-02-23T01:56:50;4.13;;;1.20;;
71048;SDS011;58704;53.358;-6.238;2024-02-23T01:59:15;6.30;;;1.23;;
71048;SDS011;58704;53.358;-6.238;2024-02-23T02:01:42;6.23;;;1.80;;
71048;SDS011;58704;53.358;-6.238;2024-02-23T02:04:07;4.55;;;1.25;;
71048;SDS011;58704;53.358;-6.238;2024-02-23T02:06:33;4.53;;;1.33;;
71048;SDS011;58704;53.358;-6.238;2024-02-23T02:08:58;8.23;;;1.50;;
71048;SDS011;58704;53.358;-6.238;2024-02-23T02:11:23;4.30;;;1.50;;
71048;SDS011;58704;53.358;-6.238;2024-02-23T02:13:48;5.80;;;1.17;;
71048;SDS011;58704;53.358;-6.238;2024-02-23T02:16:14;5.80;;;1.30;;
71048;SDS011;58704;53.358;-6.238;2024-02-23T02:18:39;5.67;;;1.00;;
71048;SDS011;58704;53.358;-6.238;2024-02-23T02:21:04;5.63;;;1.07;;
71048;SDS011;58704;53.358;-6.238;2024-02-23T02:23:29;5.13;;;1.17;;
71048;SDS011;58704;53.358;-6.238;2024-02-23T02:25:55;5.53;;;1.10;;
71048;SDS011;58704;53.358;-6.238;2024-02-23T02:28:21;6.95;;;1.23;;
71048;SDS011;58704;53.358;-6.238;2024-02-23T02:30:47;3.88;;;1.00;;
71048;SDS011;58704;53.358;-6.238;2024-02-23T02:33:12;3.53;;;0.80;;
71048;SDS011;58704;53.358;-6.238;2024-02-23T02:35:37;3.20;;;0.83;;
71048;SDS011;58704;53.358;-6.238;2024-02-23T02:38:03;3.07;;;0.90;;
71048;SDS011;58704;53.358;-6.238;2024-02-23T02:40:28;5.43;;;0.80;;
71048;SDS011;58704;53.358;-6.238;2024-02-23T02:42:53;6.60;;;1.40;;
71048;SDS011;58704;53.358;-6.238;2024-02-23T02:45:18;5.97;;;1.17;;
71048;SDS011;58704;53.358;-6.238;2024-02-23T02:47:44;3.03;;;0.77;;
71048;SDS011;58704;53.358;-6.238;2024-02-23T02:50:09;5.10;;;1.40;;
71048;SDS011;58704;53.358;-6.238;2024-02-23T02:52:34;2.10;;;0.80;;
71048;SDS011;58704;53.358;-6.238;2024-02-23T02:54:59;2.33;;;1.00;;
71048;SDS011;58704;53.358;-6.238;2024-02-23T02:57:25;7.63;;;1.00;;
71048;SDS011;58704;53.358;-6.238;2024-02-23T02:59:50;3.93;;;0.77;;
71048;SDS011;58704;53.358;-6.238;2024-02-23T03:02:15;2.10;;;0.50;;
71048;SDS011;58704;53.358;-6.238;2024-02-23T03:04:47;1.60;;;0.70;;
71048;SDS011;58704;53.358;-6.238;2024-02-23T03:07:12;4.60;;;0.80;;
71048;SDS011;58704;53.358;-6.238;2024-02-23T03:09:38;6.20;;;0.77;;
71048;SDS011;58704;53.358;-6.238;2024-02-23T03:12:03;2.77;;;0.73;;
71048;SDS011;58704;53.358;-6.238;2024-02-23T03:14:28;3.67;;;0.70;;
71048;SDS011;58704;53.358;-6.238;2024-02-23T03:16:53;3.63;;;0.80;;
71048;SDS011;58704;53.358;-6.238;2024-02-23T03:19:19;4.50;;;0.73;;
71048;SDS011;58704;53.358;-6.238;2024-02-23T03:21:47;3.55;;;0.90;;
71048;SDS011;58704;53.358;-6.238;2024-02-23T03:24:12;2.93;;;0.67;;
71048;SDS011;58704;53.358;-6.238;2024-02-23T03:26:37;4.77;;;1.00;;
71048;SDS011;58704;53.358;-6.238;2024-02-23T03:29:03;2.57;;;0.50;;
71048;SDS011;58704;53.358;-6.238;2024-02-23T03:31:28;2.63;;;0.50;;
71048;SDS011;58704;53.358;-6.238;2024-02-23T03:33:54;6.07;;;1.10;;
71048;SDS011;58704;53.358;-6.238;2024-02-23T03:36:19;1.20;;;0.70;;
71048;SDS011;58704;53.358;-6.238;2024-02-23T03:38:44;1.73;;;0.70;;
71048;SDS011;58704;53.358;-6.238;2024-02-23T03:41:09;1.70;;;0.60;;
71048;SDS011;58704;53.358;-6.238;2024-02-23T03:43:34;4.47;;;0.60;;
71048;SDS011;58704;53.358;-6.238;2024-02-23T03:46:00;0.97;;;0.43;;
71048;SDS011;58704;53.358;-6.238;2024-02-23T03:48:25;2.23;;;0.50;;
71048;SDS011;58704;53.358;-6.238;2024-02-23T03:50:50;1.27;;;0.70;;
71048;SDS011;58704;53.358;-6.238;2024-02-23T03:53:15;2.10;;;0.40;;
71048;SDS011;58704;53.358;-6.238;2024-02-23T03:55:41;1.47;;;0.70;;
71048;SDS011;58704;53.358;-6.238;2024-02-23T03:58:06;5.00;;;0.93;;
71048;SDS011;58704;53.358;-6.238;2024-02-23T04:00:31;4.57;;;1.00;;
71048;SDS011;58704;53.358;-6.238;2024-02-23T04:02:57;1.80;;;0.60;;
71048;SDS011;58704;53.358;-6.238;2024-02-23T04:05:22;1.87;;;0.70;;
71048;SDS011;58704;53.358;-6.238;2024-02-23T04:07:47;2.10;;;0.83;;
71048;SDS011;58704;53.358;-6.238;2024-02-23T04:10:12;1.37;;;0.50;;
71048;SDS011;58704;53.358;-6.238;2024-02-23T04:12:41;2.08;;;0.60;;
71048;SDS011;58704;53.358;-6.238;2024-02-23T04:15:06;2.40;;;0.60;;
71048;SDS011;58704;53.358;-6.238;2024-02-23T04:17:32;5.40;;;0.90;;
71048;SDS011;58704;53.358;-6.238;2024-02-23T04:19:57;2.90;;;0.60;;
71048;SDS011;58704;53.358;-6.238;2024-02-23T04:22:24;3.38;;;0.60;;
71048;SDS011;58704;53.358;-6.238;2024-02-23T04:24:49;6.23;;;0.70;;
71048;SDS011;58704;53.358;-6.238;2024-02-23T04:27:14;4.77;;;0.70;;
71048;SDS011;58704;53.358;-6.238;2024-02-23T04:29:39;1.13;;;0.60;;
71048;SDS011;58704;53.358;-6.238;2024-02-23T04:32:05;1.93;;;0.50;;
71048;SDS011;58704;53.358;-6.238;2024-02-23T04:34:30;1.48;;;0.52;;
71048;SDS011;58704;53.358;-6.238;2024-02-23T04:36:56;2.10;;;0.70;;
71048;SDS011;58704;53.358;-6.238;2024-02-23T04:39:21;2.07;;;0.60;;
71048;SDS011;58704;53.358;-6.238;2024-02-23T04:41:47;3.40;;;0.70;;
71048;SDS011;58704;53.358;-6.238;2024-02-23T04:44:12;1.23;;;0.50;;
71048;SDS011;58704;53.358;-6.238;2024-02-23T04:46:37;1.20;;;0.40;;
71048;SDS011;58704;53.358;-6.238;2024-02-23T04:49:03;1.87;;;0.50;;
71048;SDS011;58704;53.358;-6.238;2024-02-23T04:51:28;2.10;;;0.50;;
71048;SDS011;58704;53.358;-6.238;2024-02-23T04:53:53;2.47;;;0.70;;
71048;SDS011;58704;53.358;-6.238;2024-02-23T04:56:19;2.77;;;0.40;;
71048;SDS011;58704;53.358;-6.238;2024-02-23T04:58:44;1.20;;;0.57;;
71048;SDS011;58704;53.358;-6.238;2024-02-23T05:01:09;2.00;;;0.73;;
71048;SDS011;58704;53.358;-6.238;2024-02-23T05:03:35;4.90;;;0.70;;
71048;SDS011;58704;53.358;-6.238;2024-02-23T05:06:01;1.27;;;0.50;;
71048;SDS011;58704;53.358;-6.238;2024-02-23T05:08:27;1.65;;;0.70;;
71048;SDS011;58704;53.358;-6.238;2024-02-23T05:10:52;1.87;;;0.60;;
71048;SDS011;58704;53.358;-6.238;2024-02-23T05:13:18;1.07;;;0.67;;
71048;SDS011;58704;53.358;-6.238;2024-02-23T05:15:43;0.63;;;0.50;;
71048;SDS011;58704;53.358;-6.238;2024-02-23T05:18:08;1.03;;;0.70;;
71048;SDS011;58704;53.358;-6.238;2024-02-23T05:20:33;0.90;;;0.50;;
71048;SDS011;58704;53.358;-6.238;2024-02-23T05:22:58;3.77;;;0.73;;
71048;SDS011;58704;53.358;-6.238;2024-02-23T05:25:24;0.73;;;0.60;;
71048;SDS011;58704;53.358;-6.238;2024-02-23T05:27:51;1.15;;;0.55;;
71048;SDS011;58704;53.358;-6.238;2024-02-23T05:30:16;1.03;;;0.60;;
71048;SDS011;58704;53.358;-6.238;2024-02-23T05:32:41;1.20;;;0.70;;
71048;SDS011;58704;53.358;-6.238;2024-02-23T05:35:06;1.30;;;0.70;;
71048;SDS011;58704;53.358;-6.238;2024-02-23T05:37:32;1.80;;;0.70;;
71048;SDS011;58704;53.358;-6.238;2024-02-23T05:39:57;0.90;;;0.60;;
71048;SDS011;58704;53.358;-6.238;2024-02-23T05:42:25;5.22;;;0.60;;
71048;SDS011;58704;53.358;-6.238;2024-02-23T05:44:50;2.80;;;0.60;;
71048;SDS011;58704;53.358;-6.238;2024-02-23T05:47:15;2.00;;;0.70;;
71048;SDS011;58704;53.358;-6.238;2024-02-23T05:49:40;2.53;;;0.60;;
71048;SDS011;58704;53.358;-6.238;2024-02-23T05:52:06;3.47;;;0.60;;
71048;SDS011;58704;53.358;-6.238;2024-02-23T05:54:31;4.40;;;1.23;;
71048;SDS011;58704;53.358;-6.238;2024-02-23T05:56:57;2.50;;;0.73;;
71048;SDS011;58704;53.358;-6.238;2024-02-23T05:59:22;4.50;;;0.97;;
71048;SDS011;58704;53.358;-6.238;2024-02-23T06:01:47;1.90;;;0.50;;
71048;SDS011;58704;53.358;-6.238;2024-02-23T06:04:12;1.50;;;0.50;;
71048;SDS011;58704;53.358;-6.238;2024-02-23T06:06:41;3.43;;;0.50;;
71048;SDS011;58704;53.358;-6.238;2024-02-23T06:09:06;2.65;;;0.60;;
71048;SDS011;58704;53.358;-6.238;2024-02-23T06:11:31;3.07;;;0.70;;
71048;SDS011;58704;53.358;-6.238;2024-02-23T06:13:56;6.70;;;0.93;;
71048;SDS011;58704;53.358;-6.238;2024-02-23T06:16:22;1.90;;;0.60;;
71048;SDS011;58704;53.358;-6.238;2024-02-23T06:18:47;2.87;;;0.90;;
71048;SDS011;58704;53.358;-6.238;2024-02-23T06:21:15;3.17;;;0.63;;
71048;SDS011;58704;53.358;-6.238;2024-02-23T06:23:42;2.75;;;0.52;;
71048;SDS011;58704;53.358;-6.238;2024-02-23T06:26:07;1.47;;;0.80;;
71048;SDS011;58704;53.358;-6.238;2024-02-23T06:28:33;3.57;;;0.80;;
71048;SDS011;58704;53.358;-6.238;2024-02-23T06:30:58;2.43;;;0.70;;
71048;SDS011;58704;53.358;-6.238;2024-02-23T06:33:23;3.47;;;0.70;;
71048;SDS011;58704;53.358;-6.238;2024-02-23T06:35:48;1.47;;;0.60;;
71048;SDS011;58704;53.358;-6.238;2024-02-23T06:38:14;1.38;;;0.68;;
71048;SDS011;58704;53.358;-6.238;2024-02-23T06:40:40;3.40;;;1.03;;
71048;SDS011;58704;53.358;-6.238;2024-02-23T06:43:05;3.60;;;0.93;;
71048;SDS011;58704;53.358;-6.238;2024-02-23T06:45:30;6.03;;;1.10;;
71048;SDS011;58704;53.358;-6.238;2024-02-23T06:47:55;3.23;;;0.80;;
71048;SDS011;58704;53.358;-6.238;2024-02-23T06:50:20;6.67;;;0.97;;
71048;SDS011;58704;53.358;-6.238;2024-02-23T06:52:46;3.17;;;1.20;;
71048;SDS011;58704;53.358;-6.238;2024-02-23T06:55:13;7.68;;;0.98;;
71048;SDS011;58704;53.358;-6.238;2024-02-23T06:57:38;6.43;;;0.97;;
71048;SDS011;58704;53.358;-6.238;2024-02-23T07:00:04;5.50;;;0.93;;
71048;SDS011;58704;53.358;-6.238;2024-02-23T07:02:29;2.30;;;0.83;;
71048;SDS011;58704;53.358;-6.238;2024-02-23T07:04:57;7.05;;;0.88;;
71048;SDS011;58704;53.358;-6.238;2024-02-23T07:07:23;5.65;;;0.88;;
71048;SDS011;58704;53.358;-6.238;2024-02-23T07:09:48;5.13;;;1.23;;
71048;SDS011;58704;53.358;-6.238;2024-02-23T07:12:15;2.97;;;0.90;;
71048;SDS011;58704;53.358;-6.238;2024-02-23T07:14:40;8.90;;;1.27;;
71048;SDS011;58704;53.358;-6.238;2024-02-23T07:17:05;4.90;;;1.33;;
71048;SDS011;58704;53.358;-6.238;2024-02-23T07:19:31;4.23;;;1.20;;
71048;SDS011;58704;53.358;-6.238;2024-02-23T07:21:56;2.33;;;0.90;;
71048;SDS011;58704;53.358;-6.238;2024-02-23T07:24:21;6.47;;;0.90;;
71048;SDS011;58704;53.358;-6.238;2024-02-23T07:26:46;6.23;;;1.13;;
71048;SDS011;58704;53.358;-6.238;2024-02-23T07:29:12;3.50;;;1.00;;
71048;SDS011;58704;53.358;-6.238;2024-02-23T07:31:37;2.97;;;0.70;;
71048;SDS011;58704;53.358;-6.238;2024-02-23T07:34:02;3.93;;;0.80;;
71048;SDS011;58704;53.358;-6.238;2024-02-23T07:36:27;5.23;;;0.90;;
71048;SDS011;58704;53.358;-6.238;2024-02-23T07:38:53;5.53;;;0.80;;
71048;SDS011;58704;53.358;-6.238;2024-02-23T07:41:18;3.37;;;1.10;;
71048;SDS011;58704;53.358;-6.238;2024-02-23T07:43:43;4.67;;;0.90;;
71048;SDS011;58704;53.358;-6.238;2024-02-23T07:46:09;2.95;;;1.10;;
71048;SDS011;58704;53.358;-6.238;2024-02-23T07:48:35;3.53;;;0.77;;
71048;SDS011;58704;53.358;-6.238;2024-02-23T07:51:00;7.20;;;1.25;;
71048;SDS011;58704;53.358;-6.238;2024-02-23T07:53:26;10.30;;;0.90;;
71048;SDS011;58704;53.358;-6.238;2024-02-23T07:55:51;5.20;;;1.10;;
71048;SDS011;58704;53.358;-6.238;2024-02-23T07:58:16;3.43;;;1.03;;
71048;SDS011;58704;53.358;-6.238;2024-02-23T08:00:41;3.77;;;0.90;;
71048;SDS011;58704;53.358;-6.238;2024-02-23T08:03:07;1.80;;;1.00;;
71048;SDS011;58704;53.358;-6.238;2024-02-23T08:05:33;4.82;;;2.28;;
71048;SDS011;58704;53.358;-6.238;2024-02-23T08:07:58;3.83;;;0.97;;
71048;SDS011;58704;53.358;-6.238;2024-02-23T08:10:23;6.57;;;1.23;;
71048;SDS011;58704;53.358;-6.238;2024-02-23T08:12:50;3.28;;;1.08;;
71048;SDS011;58704;53.358;-6.238;2024-02-23T08:15:16;4.43;;;0.93;;
71048;SDS011;58704;53.358;-6.238;2024-02-23T08:17:41;4.20;;;1.03;;
71048;SDS011;58704;53.358;-6.238;2024-02-23T08:20:06;2.60;;;0.80;;
71048;SDS011;58704;53.358;-6.238;2024-02-23T08:22:32;5.13;;;1.43;;
71048;SDS011;58704;53.358;-6.238;2024-02-23T08:24:57;2.27;;;0.83;;
71048;SDS011;58704;53.358;-6.238;2024-02-23T08:27:23;6.67;;;0.70;;
71048;SDS011;58704;53.358;-6.238;2024-02-23T08:29:48;3.00;;;0.77;;
71048;SDS011;58704;53.358;-6.238;2024-02-23T08:32:13;5.73;;;1.20;;
71048;SDS011;58704;53.358;-6.238;2024-02-23T08:34:39;4.67;;;1.10;;
71048;SDS011;58704;53.358;-6.238;2024-02-23T08:37:04;3.60;;;1.13;;
71048;SDS011;58704;53.358;-6.238;2024-02-23T08:39:29;2.97;;;1.00;;
71048;SDS011;58704;53.358;-6.238;2024-02-23T08:41:54;3.40;;;0.97;;
71048;SDS011;58704;53.358;-6.238;2024-02-23T08:44:20;1.50;;;0.70;;
71048;SDS011;58704;53.358;-6.238;2024-02-23T08:46:45;4.03;;;1.10;;
71048;SDS011;58704;53.358;-6.238;2024-02-23T08:49:10;8.93;;;1.63;;
71048;SDS011;58704;53.358;-6.238;2024-02-23T08:51:35;6.63;;;0.90;;
71048;SDS011;58704;53.358;-6.238;2024-02-23T08:54:01;4.80;;;0.90;;
71048;SDS011;58704;53.358;-6.238;2024-02-23T08:56:29;2.85;;;1.08;;
71048;SDS011;58704;53.358;-6.238;2024-02-23T08:58:54;1.73;;;0.90;;
71048;SDS011;58704;53.358;-6.238;2024-02-23T09:01:20;2.73;;;1.00;;
71048;SDS011;58704;53.358;-6.238;2024-02-23T09:03:45;3.53;;;0.97;;
71048;SDS011;58704;53.358;-6.238;2024-02-23T09:06:10;8.47;;;1.57;;
71048;SDS011;58704;53.358;-6.238;2024-02-23T09:08:35;4.63;;;1.00;;
71048;SDS011;58704;53.358;-6.238;2024-02-23T09:11:01;4.00;;;1.10;;
71048;SDS011;58704;53.358;-6.238;2024-02-23T09:13:26;3.13;;;0.93;;
71048;SDS011;58704;53.358;-6.238;2024-02-23T09:15:54;4.45;;;0.90;;
71048;SDS011;58704;53.358;-6.238;2024-02-23T09:18:19;4.30;;;1.00;;
71048;SDS011;58704;53.358;-6.238;2024-02-23T09:20:45;1.37;;;0.80;;
71048;SDS011;58704;53.358;-6.238;2024-02-23T09:23:10;3.47;;;1.40;;
71048;SDS011;58704;53.358;-6.238;2024-02-23T09:25:37;2.83;;;1.08;;
71048;SDS011;58704;53.358;-6.238;2024-02-23T09:28:02;5.13;;;1.27;;
71048;SDS011;58704;53.358;-6.238;2024-02-23T09:30:27;3.63;;;1.00;;
71048;SDS011;58704;53.358;-6.238;2024-02-23T09:32:53;3.57;;;1.27;;
71048;SDS011;58704;53.358;-6.238;2024-02-23T09:35:19;3.92;;;1.20;;
71048;SDS011;58704;53.358;-6.238;2024-02-23T09:37:44;3.47;;;1.17;;
71048;SDS011;58704;53.358;-6.238;2024-02-23T09:40:10;3.27;;;1.10;;
71048;SDS011;58704;53.358;-6.238;2024-02-23T09:42:35;1.70;;;1.10;;
71048;SDS011;58704;53.358;-6.238;2024-02-23T09:45:03;2.85;;;1.00;;
71048;SDS011;58704;53.358;-6.238;2024-02-23T09:47:30;2.95;;;0.90;;
71048;SDS011;58704;53.358;-6.238;2024-02-23T09:49:56;4.70;;;0.93;;
71048;SDS011;58704;53.358;-6.238;2024-02-23T09:52:21;3.15;;;1.10;;
71048;SDS011;58704;53.358;-6.238;2024-02-23T09:54:47;3.27;;;1.20;;
71048;SDS011;58704;53.358;-6.238;2024-02-23T09:57:13;2.95;;;1.08;;
71048;SDS011;58704;53.358;-6.238;2024-02-23T09:59:39;2.05;;;1.10;;
71048;SDS011;58704;53.358;-6.238;2024-02-23T10:02:06;3.20;;;0.70;;
71048;SDS011;58704;53.358;-6.238;2024-02-23T10:04:33;3.25;;;1.00;;
71048;SDS011;58704;53.358;-6.238;2024-02-23T10:06:58;4.47;;;0.90;;
71048;SDS011;58704;53.358;-6.238;2024-02-23T10:09:24;4.13;;;0.77;;
71048;SDS011;58704;53.358;-6.238;2024-02-23T10:11:53;3.13;;;0.80;;
71048;SDS011;58704;53.358;-6.238;2024-02-23T10:14:18;2.08;;;0.90;;
71048;SDS011;58704;53.358;-6.238;2024-02-23T10:16:43;5.27;;;1.20;;
71048;SDS011;58704;53.358;-6.238;2024-02-23T10:19:09;4.70;;;1.10;;
71048;SDS011;58704;53.358;-6.238;2024-02-23T10:21:34;1.37;;;0.90;;
71048;SDS011;58704;53.358;-6.238;2024-02-23T10:24:00;3.60;;;0.87;;
71048;SDS011;58704;53.358;-6.238;2024-02-23T10:26:26;2.03;;;0.90;;
71048;SDS011;58704;53.358;-6.238;2024-02-23T10:28:51;2.80;;;1.17;;
71048;SDS011;58704;53.358;-6.238;2024-02-23T10:31:17;3.58;;;1.50;;
71048;SDS011;58704;53.358;-6.238;2024-02-23T10:33:43;4.83;;;0.90;;
71048;SDS011;58704;53.358;-6.238;2024-02-23T10:36:09;6.95;;;1.00;;
71048;SDS011;58704;53.358;-6.238;2024-02-23T10:38:37;5.00;;;0.90;;
71048;SDS011;58704;53.358;-6.238;2024-02-23T10:41:04;7.93;;;1.67;;
71048;SDS011;58704;53.358;-6.238;2024-02-23T10:43:32;3.28;;;1.27;;
71048;SDS011;58704;53.358;-6.238;2024-02-23T10:45:58;3.95;;;1.30;;
71048;SDS011;58704;53.358;-6.238;2024-02-23T10:48:24;3.55;;;1.10;;
71048;SDS011;58704;53.358;-6.238;2024-02-23T10:50:50;2.80;;;0.90;;
71048;SDS011;58704;53.358;-6.238;2024-02-23T10:53:15;7.33;;;1.00;;
71048;SDS011;58704;53.358;-6.238;2024-02-23T10:55:41;2.00;;;1.10;;
71048;SDS011;58704;53.358;-6.238;2024-02-23T10:58:09;2.75;;;1.10;;
71048;SDS011;58704;53.358;-6.238;2024-02-23T11:00:36;5.15;;;1.60;;
71048;SDS011;58704;53.358;-6.238;2024-02-23T11:03:02;5.37;;;1.10;;
71048;SDS011;58704;53.358;-6.238;2024-02-23T11:05:28;2.83;;;1.48;;
71048;SDS011;58704;53.358;-6.238;2024-02-23T11:07:55;2.03;;;1.20;;
71048;SDS011;58704;53.358;-6.238;2024-02-23T11:10:21;6.55;;;1.38;;
71048;SDS011;58704;53.358;-6.238;2024-02-23T11:13:01;4.72;;;1.10;;
71048;SDS011;58704;53.358;-6.238;2024-02-23T11:15:27;4.25;;;1.27;;
71048;SDS011;58704;53.358;-6.238;2024-02-23T11:17:53;3.53;;;1.00;;
71048;SDS011;58704;53.358;-6.238;2024-02-23T11:20:19;4.00;;;1.13;;
71048;SDS011;58704;53.358;-6.238;2024-02-23T11:22:48;2.95;;;1.42;;
71048;SDS011;58704;53.358;-6.238;2024-02-23T11:25:16;6.13;;;1.20;;
71048;SDS011;58704;53.358;-6.238;2024-02-23T11:27:42;3.30;;;1.27;;
71048;SDS011;58704;53.358;-6.238;2024-02-23T11:30:09;3.38;;;1.10;;
71048;SDS011;58704;53.358;-6.238;2024-02-23T11:32:40;4.53;;;1.03;;
71048;SDS011;58704;53.358;-6.238;2024-02-23T11:35:06;5.57;;;1.02;;
71048;SDS011;58704;53.358;-6.238;2024-02-23T11:37:32;3.58;;;0.90;;
71048;SDS011;58704;53.358;-6.238;2024-02-23T11:39:58;3.15;;;1.00;;
71048;SDS011;58704;53.358;-6.238;2024-02-23T11:42:23;3.37;;;1.30;;
71048;SDS011;58704;53.358;-6.238;2024-02-23T11:44:50;4.18;;;1.10;;
71048;SDS011;58704;53.358;-6.238;2024-02-23T11:47:15;3.33;;;1.10;;
71048;SDS011;58704;53.358;-6.238;2024-02-23T11:49:42;4.68;;;1.20;;
71048;SDS011;58704;53.358;-6.238;2024-02-23T11:52:07;2.53;;;0.87;;
71048;SDS011;58704;53.358;-6.238;2024-02-23T11:54:32;3.43;;;1.30;;
71048;SDS011;58704;53.358;-6.238;2024-02-23T11:56:58;4.55;;;1.38;;
71048;SDS011;58704;53.358;-6.238;2024-02-23T11:59:24;7.33;;;1.60;;
71048;SDS011;58704;53.358;-6.238;2024-02-23T12:01:50;5.25;;;1.30;;
71048;SDS011;58704;53.358;-6.238;2024-02-23T12:04:16;5.43;;;1.30;;
71048;SDS011;58704;53.358;-6.238;2024-02-23T12:06:41;4.37;;;1.50;;
71048;SDS011;58704;53.358;-6.238;2024-02-23T12:09:07;6.85;;;1.35;;
71048;SDS011;58704;53.358;-6.238;2024-02-23T12:11:32;3.80;;;1.30;;
71048;SDS011;58704;53.358;-6.238;2024-02-23T12:13:58;4.33;;;1.40;;
71048;SDS011;58704;53.358;-6.238;2024-02-23T12:16:23;3.37;;;0.80;;
71048;SDS011;58704;53.358;-6.238;2024-02-23T12:18:55;2.73;;;1.37;;
71048;SDS011;58704;53.358;-6.238;2024-02-23T12:21:21;4.05;;;1.13;;
71048;SDS011;58704;53.358;-6.238;2024-02-23T12:23:48;5.57;;;1.60;;
71048;SDS011;58704;53.358;-6.238;2024-02-23T12:26:13;5.10;;;1.27;;
71048;SDS011;58704;53.358;-6.238;2024-02-23T12:28:39;2.70;;;1.10;;
71048;SDS011;58704;53.358;-6.238;2024-02-23T12:31:05;2.03;;;1.10;;
71048;SDS011;58704;53.358;-6.238;2024-02-23T12:33:37;5.38;;;1.30;;
71048;SDS011;58704;53.358;-6.238;2024-02-23T12:36:03;6.95;;;1.13;;
71048;SDS011;58704;53.358;-6.238;2024-02-23T12:38:29;2.97;;;0.88;;
71048;SDS011;58704;53.358;-6.238;2024-02-23T12:40:54;2.57;;;0.83;;
71048;SDS011;58704;53.358;-6.238;2024-02-23T12:43:20;4.20;;;1.20;;
71048;SDS011;58704;53.358;-6.238;2024-02-23T12:45:46;6.18;;;1.67;;
71048;SDS011;58704;53.358;-6.238;2024-02-23T12:48:14;2.97;;;1.23;;
71048;SDS011;58704;53.358;-6.238;2024-02-23T12:50:39;3.40;;;1.50;;
71048;SDS011;58704;53.358;-6.238;2024-02-23T12:53:05;2.63;;;1.50;;
71048;SDS011;58704;53.358;-6.238;2024-02-23T12:55:30;3.47;;;1.30;;
71048;SDS011;58704;53.358;-6.238;2024-02-23T12:57:55;3.23;;;1.47;;
71048;SDS011;58704;53.358;-6.238;2024-02-23T13:00:20;6.13;;;2.57;;
71048;SDS011;58704;53.358;-6.238;2024-02-23T13:02:46;4.47;;;2.10;;
71048;SDS011;58704;53.358;-6.238;2024-02-23T13:05:11;7.27;;;1.97;;
71048;SDS011;58704;53.358;-6.238;2024-02-23T13:07:36;6.13;;;1.57;;
71048;SDS011;58704;53.358;-6.238;2024-02-23T13:10:04;9.68;;;2.60;;
71048;SDS011;58704;53.358;-6.238;2024-02-23T13:12:29;3.83;;;1.38;;
71048;SDS011;58704;53.358;-6.238;2024-02-23T13:14:54;4.30;;;1.30;;
71048;SDS011;58704;53.358;-6.238;2024-02-23T13:17:19;4.77;;;1.30;;
71048;SDS011;58704;53.358;-6.238;2024-02-23T13:19:45;6.23;;;1.80;;
71048;SDS011;58704;53.358;-6.238;2024-02-23T13:22:10;6.60;;;1.90;;
71048;SDS011;58704;53.358;-6.238;2024-02-23T13:24:36;2.87;;;1.27;;
71048;SDS011;58704;53.358;-6.238;2024-02-23T13:27:01;2.30;;;0.90;;
71048;SDS011;58704;53.358;-6.238;2024-02-23T13:29:27;5.83;;;1.30;;
71048;SDS011;58704;53.358;-6.238;2024-02-23T13:31:52;3.90;;;1.70;;
71048;SDS011;58704;53.358;-6.238;2024-02-23T13:34:17;3.40;;;1.60;;
71048;SDS011;58704;53.358;-6.238;2024-02-23T13:36:43;3.20;;;1.47;;
71048;SDS011;58704;53.358;-6.238;2024-02-23T13:39:09;3.42;;;1.50;;
71048;SDS011;58704;53.358;-6.238;2024-02-23T13:41:34;2.73;;;1.40;;
71048;SDS011;58704;53.358;-6.238;2024-02-23T13:43:59;2.35;;;1.48;;
71048;SDS011;58704;53.358;-6.238;2024-02-23T13:46:25;3.73;;;1.20;;
71048;SDS011;58704;53.358;-6.238;2024-02-23T13:49:01;2.03;;;1.27;;
71048;SDS011;58704;53.358;-6.238;2024-02-23T13:51:27;4.00;;;1.05;;
71048;SDS011;58704;53.358;-6.238;2024-02-23T13:53:52;6.57;;;1.50;;
71048;SDS011;58704;53.358;-6.238;2024-02-23T13:56:17;2.10;;;1.10;;
71048;SDS011;58704;53.358;-6.238;2024-02-23T13:58:42;1.33;;;1.20;;
71048;SDS011;58704;53.358;-6.238;2024-02-23T14:01:08;1.43;;;0.80;;
71048;SDS011;58704;53.358;-6.238;2024-02-23T14:03:33;4.30;;;1.20;;
71048;SDS011;58704;53.358;-6.238;2024-02-23T14:05:59;3.80;;;1.10;;
71048;SDS011;58704;53.358;-6.238;2024-02-23T14:08:24;4.20;;;1.00;;
71048;SDS011;58704;53.358;-6.238;2024-02-23T14:10:49;3.27;;;0.80;;
71048;SDS011;58704;53.358;-6.238;2024-02-23T14:13:14;2.33;;;0.90;;
71048;SDS011;58704;53.358;-6.238;2024-02-23T14:15:40;2.67;;;1.03;;
71048;SDS011;58704;53.358;-6.238;2024-02-23T14:18:05;2.47;;;1.13;;
71048;SDS011;58704;53.358;-6.238;2024-02-23T14:20:31;3.53;;;1.30;;
71048;SDS011;58704;53.358;-6.238;2024-02-23T14:22:56;4.33;;;1.17;;